Time;durP1;ratioP1;P1;durP2;ratioP2;P2;SDS_P1;SDS_P2;PMS_P1;PMS_P2;Temp;Humidity;BMP_temperature;BMP_pressure;BME280_temperature;BME280_humidity;BME280_pressure;Samples;Min_cycle;Max_cycle;Signal;HPM_P1;HPM_P2
2023/01/09 00:00:17;;;;;;;;;;;14.70;54.70;;;;;;5024374;28;19921;-90
2023/01/09 00:02:44;;;;;;;;;;;14.80;54.80;;;;;;4997619;28;19949;-90
2023/01/09 00:05:10;;;;;;;;;;;14.80;54.80;;;;;;4980475;28;20435;-90
2023/01/09 00:07:37;;;;;;;;;;;14.80;54.80;;;;;;5023575;28;19984;-88
2023/01/09 00:10:03;;;;;;;;;;;14.80;54.50;;;;;;5005692;28;19935;-88
2023/01/09 00:12:29;;;;;;;;;;;14.80;54.50;;;;;;5009757;28;19914;-90
2023/01/09 00:14:54;;;;;;;;;;;14.90;54.60;;;;;;5014739;28;19917;-89
2023/01/09 00:17:20;;;;;;;;;;;14.90;54.60;;;;;;5015952;28;20300;-88
2023/01/09 00:19:46;;;;;;;;;;;14.90;54.40;;;;;;4998726;28;19932;-89
2023/01/09 00:22:11;;;;;;;;;;;15.00;54.60;;;;;;4992240;28;19929;-89
2023/01/09 00:24:37;;;;;;;;;;;15.00;54.70;;;;;;5015235;28;19964;-88
2023/01/09 00:27:03;;;;;;;;;;;15.00;54.60;;;;;;5016386;28;20391;-89
2023/01/09 00:29:29;;;;;;;;;;;15.00;54.60;;;;;;5015291;28;19921;-88
2023/01/09 00:32:08;;;;;;;;;;;15.00;54.90;;;;;;4987983;28;20085;-89
2023/01/09 00:34:43;;;;;;;;;;;14.90;55.40;;;;;;4974547;28;20062;-89
2023/01/09 00:37:31;;;;;;;;;;;14.80;56.10;;;;;;4952731;28;19932;-90
2023/01/09 00:40:18;;;;;;;;;;;14.70;56.80;;;;;;4960413;28;20252;-89
2023/01/09 00:42:58;;;;;;;;;;;14.60;58.30;;;;;;4970714;28;20001;-93
2023/01/09 00:46:06;;;;;;;;;;;14.40;59.40;;;;;;4968821;28;20089;-90
2023/01/09 00:52:10;;;;;;;;;;;;;;;;;;;;;
2023/01/09 00:55:02;;;;;;;;;;;14.30;60.80;;;;;;4944470;28;20167;-90
2023/01/09 00:57:50;;;;;;;;;;;14.30;61.30;;;;;;4936154;28;20139;-88
2023/01/09 01:00:16;;;;;;;;;;;14.30;61.30;;;;;;4923370;28;20126;-90
2023/01/09 01:02:48;;;;;;;;;;;14.20;61.50;;;;;;4928493;28;19961;-88
2023/01/09 01:08:19;;;;;;;;;;;14.20;61.80;;;;;;4966535;28;19940;-90
2023/01/09 01:11:13;;;;;;;;;;;14.00;62.20;;;;;;4954082;28;20102;-92
2023/01/09 01:13:45;;;;;;;;;;;14.00;62.50;;;;;;4923967;28;19989;-90
2023/01/09 01:16:17;;;;;;;;;;;14.00;62.60;;;;;;4936692;28;19941;-92
2023/01/09 01:19:03;;;;;;;;;;;14.00;62.80;;;;;;4958428;28;20006;-91
2023/01/09 01:21:47;;;;;;;;;;;14.00;62.80;;;;;;4970491;28;20095;-91
2023/01/09 01:24:52;;;;;;;;;;;13.90;62.80;;;;;;4974573;28;20147;-89
2023/01/09 01:27:28;;;;;;;;;;;13.90;62.70;;;;;;4894090;29;20181;-90
2023/01/09 01:30:16;;;;;;;;;;;13.80;63.00;;;;;;4872914;29;20040;-90
2023/01/09 01:32:52;;;;;;;;;;;13.80;63.00;;;;;;4872686;29;20095;-92
2023/01/09 01:35:50;;;;;;;;;;;13.80;63.00;;;;;;4870129;29;20125;-89
2023/01/09 01:38:22;;;;;;;;;;;13.80;63.10;;;;;;4941836;28;20087;-90
2023/01/09 01:41:13;;;;;;;;;;;13.80;63.20;;;;;;4889872;29;20104;-89
2023/01/09 01:43:53;;;;;;;;;;;13.70;63.60;;;;;;4904312;28;19965;-89
2023/01/09 01:46:53;;;;;;;;;;;13.70;63.60;;;;;;4975953;28;20109;-90
2023/01/09 01:49:42;;;;;;;;;;;13.70;63.70;;;;;;5024683;28;20092;-93
2023/01/09 01:52:11;;;;;;;;;;;13.70;63.80;;;;;;5008345;28;20106;-90
2023/01/09 01:54:46;;;;;;;;;;;13.60;63.80;;;;;;4998400;28;20104;-89
2023/01/09 01:57:24;;;;;;;;;;;13.60;63.70;;;;;;5008397;28;20101;-91
2023/01/09 02:02:44;;;;;;;;;;;13.60;63.90;;;;;;4984901;28;19994;-92
2023/01/09 02:05:16;;;;;;;;;;;13.50;64.00;;;;;;4966103;28;20243;-89
2023/01/09 02:07:51;;;;;;;;;;;13.60;63.90;;;;;;4969962;28;20102;-92
2023/01/09 02:10:27;;;;;;;;;;;13.60;63.90;;;;;;5029127;28;20484;-90
2023/01/09 02:12:54;;;;;;;;;;;13.50;63.60;;;;;;5010681;28;20318;-89
2023/01/09 02:15:24;;;;;;;;;;;13.50;63.40;;;;;;5007222;28;20085;-90
2023/01/09 02:21:21;;;;;;;;;;;13.40;63.60;;;;;;4993312;28;20356;-92
2023/01/09 02:24:03;;;;;;;;;;;13.30;63.70;;;;;;5025411;28;20066;-91
2023/01/09 02:26:51;;;;;;;;;;;13.30;64.00;;;;;;5048121;28;20088;-92
2023/01/09 02:29:36;;;;;;;;;;;13.20;64.20;;;;;;5023631;28;20169;-90
2023/01/09 02:32:13;;;;;;;;;;;13.20;64.30;;;;;;5015348;28;19989;-93
2023/01/09 02:35:00;;;;;;;;;;;13.30;64.30;;;;;;5026111;28;20136;-90
2023/01/09 02:37:27;;;;;;;;;;;13.30;64.40;;;;;;5014008;28;20088;-92
2023/01/09 02:39:58;;;;;;;;;;;13.30;64.20;;;;;;5031939;28;20290;-90
2023/01/09 02:42:28;;;;;;;;;;;13.30;64.10;;;;;;5029142;28;20303;-91
2023/01/09 02:44:56;;;;;;;;;;;13.30;64.10;;;;;;5015238;28;19913;-93
2023/01/09 02:47:56;;;;;;;;;;;13.20;64.30;;;;;;5013350;28;20083;-93
2023/01/09 02:50:47;;;;;;;;;;;13.30;64.30;;;;;;4979949;28;20130;-90
2023/01/09 02:53:32;;;;;;;;;;;13.20;64.50;;;;;;5030541;28;19985;-90
2023/01/09 02:56:15;;;;;;;;;;;13.10;64.50;;;;;;5016255;28;20115;-91
2023/01/09 02:59:00;;;;;;;;;;;13.20;64.40;;;;;;5004701;28;20088;-91
2023/01/09 03:01:55;;;;;;;;;;;13.10;64.40;;;;;;4999017;28;19916;-94
2023/01/09 03:04:34;;;;;;;;;;;13.10;64.50;;;;;;5014125;28;20072;-91
2023/01/09 03:07:24;;;;;;;;;;;13.10;64.30;;;;;;5013478;28;20095;-94
2023/01/09 03:10:08;;;;;;;;;;;13.10;64.30;;;;;;5003138;28;20190;-90
2023/01/09 03:15:49;;;;;;;;;;;13.10;64.30;;;;;;5023115;28;19973;-93
2023/01/09 03:18:26;;;;;;;;;;;13.10;64.20;;;;;;5011046;28;20052;-92
2023/01/09 03:21:18;;;;;;;;;;;;;;;;;;;;;
2023/01/09 03:24:12;;;;;;;;;;;;;;;;;;;;;
2023/01/09 03:26:39;;;;;;;;;;;13.10;64.30;;;;;;4950861;28;20173;-90
2023/01/09 03:29:23;;;;;;;;;;;13.10;64.30;;;;;;5011093;28;19993;-90
2023/01/09 03:31:50;;;;;;;;;;;13.20;64.20;;;;;;5030816;28;20091;-93
2023/01/09 03:34:38;;;;;;;;;;;13.20;64.20;;;;;;5010500;28;19989;-91
2023/01/09 03:37:07;;;;;;;;;;;13.20;64.10;;;;;;5027937;28;19962;-92
2023/01/09 03:39:39;;;;;;;;;;;13.20;64.20;;;;;;5029891;28;20115;-92
2023/01/09 03:48:02;;;;;;;;;;;;;;;;;;;;;
2023/01/09 03:50:46;;;;;;;;;;;13.30;63.90;;;;;;4946434;28;20082;-94
2023/01/09 03:53:22;;;;;;;;;;;13.30;63.90;;;;;;4994964;28;20421;-91
2023/01/09 03:55:53;;;;;;;;;;;13.30;63.90;;;;;;5012267;28;20102;-92
2023/01/09 03:58:20;;;;;;;;;;;13.30;63.80;;;;;;5034294;28;20162;-91
2023/01/09 04:04:02;;;;;;;;;;;13.40;63.90;;;;;;4968726;28;20090;-91
2023/01/09 04:06:32;;;;;;;;;;;13.40;63.90;;;;;;5029203;28;20055;-91
2023/01/09 04:08:58;;;;;;;;;;;13.40;63.90;;;;;;5014520;28;20237;-92
2023/01/09 04:14:15;;;;;;;;;;;13.40;63.90;;;;;;4966392;28;20293;-91
2023/01/09 04:17:34;;;;;;;;;;;13.50;63.80;;;;;;4932360;28;20084;-93
2023/01/09 04:19:59;;;;;;;;;;;13.40;63.60;;;;;;4954925;28;19984;-94
2023/01/09 04:22:35;;;;;;;;;;;13.50;63.50;;;;;;4954200;28;20039;-93
2023/01/09 04:25:03;;;;;;;;;;;13.40;63.70;;;;;;4962533;28;20190;-92
2023/01/09 04:27:39;;;;;;;;;;;13.50;63.80;;;;;;5013271;28;20357;-90
2023/01/09 04:30:20;;;;;;;;;;;13.50;63.80;;;;;;5009537;28;20043;-92
2023/01/09 04:32:46;;;;;;;;;;;13.50;63.70;;;;;;5035405;28;20156;-90
2023/01/09 04:35:11;;;;;;;;;;;13.50;63.70;;;;;;5024835;28;19925;-91
2023/01/09 04:37:37;;;;;;;;;;;13.50;63.70;;;;;;5012573;28;19924;-92
2023/01/09 04:40:12;;;;;;;;;;;13.50;63.70;;;;;;5040237;28;20456;-90
2023/01/09 04:42:40;;;;;;;;;;;13.50;63.70;;;;;;5010041;28;19963;-91
2023/01/09 04:45:10;;;;;;;;;;;13.40;63.60;;;;;;5007456;28;19944;-91
2023/01/09 04:47:42;;;;;;;;;;;13.40;63.60;;;;;;5038278;28;20508;-91
2023/01/09 04:52:53;;;;;;;;;;;13.30;63.30;;;;;;5026618;28;19928;-90
2023/01/09 04:55:21;;;;;;;;;;;13.30;63.20;;;;;;5042716;28;19913;-90
2023/01/09 04:57:58;;;;;;;;;;;13.30;63.30;;;;;;5029754;28;20445;-89
2023/01/09 05:04:19;;;;;;;;;;;13.20;63.60;;;;;;5000017;28;19929;-90
2023/01/09 05:06:58;;;;;;;;;;;13.20;63.80;;;;;;4970986;28;19944;-91
2023/01/09 05:09:55;;;;;;;;;;;13.10;63.50;;;;;;4988913;28;19917;-90
2023/01/09 05:12:35;;;;;;;;;;;13.00;63.20;;;;;;5006447;28;19922;-90
2023/01/09 05:15:19;;;;;;;;;;;13.00;62.80;;;;;;4990740;28;19925;-92
2023/01/09 05:18:12;;;;;;;;;;;12.80;62.70;;;;;;5001090;28;19959;-90
2023/01/09 05:20:45;;;;;;;;;;;12.80;62.60;;;;;;5016747;28;19936;-91
2023/01/09 05:26:22;;;;;;;;;;;12.70;62.90;;;;;;3733147;26;20342;-91
2023/01/09 05:28:56;;;;;;;;;;;12.70;63.00;;;;;;5040889;28;20360;-90
2023/01/09 05:31:27;;;;;;;;;;;12.70;63.50;;;;;;5043474;28;19952;-90
2023/01/09 05:58:25;;;;;;;;;;;12.60;63.80;;;;;;5003326;28;20044;-91
2023/01/09 06:01:05;;;;;;;;;;;12.60;64.20;;;;;;5027198;28;19921;-91
2023/01/09 06:03:42;;;;;;;;;;;12.70;64.10;;;;;;5010079;28;19988;-90
2023/01/09 06:06:14;;;;;;;;;;;12.80;64.10;;;;;;5010097;28;20012;-91
2023/01/09 06:08:53;;;;;;;;;;;12.90;64.10;;;;;;5007696;28;19957;-92
2023/01/09 06:11:20;;;;;;;;;;;13.00;64.10;;;;;;5020056;28;19932;-91
2023/01/09 06:20:13;;;;;;;;;;;13.10;63.80;;;;;;5010523;28;19925;-90
2023/01/09 06:22:46;;;;;;;;;;;13.10;63.60;;;;;;5009066;28;19921;-91
2023/01/09 06:25:20;;;;;;;;;;;13.10;63.40;;;;;;5008479;28;19932;-91
2023/01/09 06:27:52;;;;;;;;;;;13.00;63.40;;;;;;5025576;28;19925;-91
2023/01/09 06:30:36;;;;;;;;;;;13.10;63.40;;;;;;5027806;28;19909;-91
2023/01/09 06:38:31;;;;;;;;;;;13.00;63.30;;;;;;4248156;26;20516;-91
2023/01/09 06:41:19;;;;;;;;;;;12.90;63.20;;;;;;5005600;28;19988;-90
2023/01/09 06:43:56;;;;;;;;;;;12.70;63.00;;;;;;5024812;28;20430;-93
2023/01/09 06:46:25;;;;;;;;;;;12.60;62.70;;;;;;4993611;28;19948;-91
2023/01/09 06:54:58;;;;;;;;;;;12.50;63.80;;;;;;5004398;28;19929;-91
2023/01/09 06:57:29;;;;;;;;;;;12.50;64.20;;;;;;4988016;28;19921;-91
2023/01/09 07:00:22;;;;;;;;;;;12.60;64.10;;;;;;4989095;28;19917;-90
2023/01/09 07:02:54;;;;;;;;;;;12.70;63.80;;;;;;4970751;28;20403;-90
2023/01/09 07:05:27;;;;;;;;;;;12.70;63.90;;;;;;4989206;28;19922;-90
2023/01/09 07:10:45;;;;;;;;;;;12.80;63.60;;;;;;5044846;23;19986;-90
2023/01/09 07:16:10;;;;;;;;;;;12.90;63.70;;;;;;5025801;28;19935;-90
2023/01/09 07:21:51;;;;;;;;;;;12.90;63.70;;;;;;4989178;28;19929;-90
2023/01/09 07:24:35;;;;;;;;;;;12.90;63.50;;;;;;5003154;28;19913;-89
2023/01/09 07:27:12;;;;;;;;;;;12.90;63.50;;;;;;5012367;28;20080;-90
2023/01/09 07:32:53;;;;;;;;;;;12.90;63.40;;;;;;4972939;28;19917;-91
2023/01/09 07:35:33;;;;;;;;;;;12.90;63.40;;;;;;5009318;28;19957;-91
2023/01/09 07:46:35;;;;;;;;;;;12.90;63.40;;;;;;5051063;28;19927;-92
2023/01/09 07:52:31;;;;;;;;;;;13.00;63.50;;;;;;5067582;28;19986;-91
2023/01/09 08:04:51;;;;;;;;;;;12.70;63.50;;;;;;5047678;28;20300;-91
2023/01/09 08:07:30;;;;;;;;;;;12.70;63.70;;;;;;5040203;28;19921;-91
2023/01/09 08:13:37;;;;;;;;;;;12.70;63.80;;;;;;5000327;28;19925;-90
2023/01/09 08:16:18;;;;;;;;;;;12.70;63.80;;;;;;4954735;28;19933;-91
2023/01/09 08:19:23;;;;;;;;;;;12.70;63.70;;;;;;4968106;28;20209;-90
2023/01/09 08:22:00;;;;;;;;;;;12.80;63.70;;;;;;4966550;28;20246;-91
2023/01/09 08:36:39;;;;;;;;;;;12.80;63.60;;;;;;4972172;28;19933;-91
2023/01/09 08:39:13;;;;;;;;;;;12.70;63.70;;;;;;4967960;28;20150;-91
2023/01/09 08:50:21;;;;;;;;;;;12.60;63.80;;;;;;4968969;28;19932;-89
2023/01/09 08:56:13;;;;;;;;;;;12.60;64.10;;;;;;5016244;23;20149;-91
2023/01/09 08:58:54;;;;;;;;;;;12.70;64.00;;;;;;5002412;28;19925;-90
2023/01/09 09:06:57;;;;;;;;;;;12.70;64.10;;;;;;2423055;26;19921;-90
2023/01/09 09:09:35;;;;;;;;;;;12.70;64.10;;;;;;5045898;28;20224;-91
2023/01/09 09:12:18;;;;;;;;;;;12.80;64.10;;;;;;5045769;28;20359;-91
2023/01/09 09:20:27;;;;;;;;;;;13.00;64.40;;;;;;5044362;28;19974;-91
2023/01/09 09:50:46;;;;;;;;;;;16.60;66.00;;;;;;5021035;28;20411;-89
2023/01/09 09:53:17;;;;;;;;;;;17.10;65.40;;;;;;5009072;28;19929;-89
2023/01/09 09:55:45;;;;;;;;;;;17.30;64.00;;;;;;4995910;28;19922;-91
2023/01/09 09:58:20;;;;;;;;;;;17.50;63.80;;;;;;4994140;28;20015;-90
2023/01/09 10:00:46;;;;;;;;;;;17.70;64.00;;;;;;5008561;28;19967;-90
2023/01/09 10:03:18;;;;;;;;;;;17.80;63.40;;;;;;5008239;28;19921;-90
2023/01/09 10:05:45;;;;;;;;;;;17.80;62.50;;;;;;5007629;28;19940;-90
2023/01/09 10:08:14;;;;;;;;;;;17.90;62.70;;;;;;5013464;28;20019;-91
2023/01/09 10:10:49;;;;;;;;;;;18.00;62.20;;;;;;4988771;28;19916;-87
2023/01/09 10:16:05;;;;;;;;;;;17.90;61.30;;;;;;5012454;28;19959;-90
2023/01/09 10:18:46;;;;;;;;;;;17.60;60.10;;;;;;5003790;28;20368;-90
2023/01/09 10:21:16;;;;;;;;;;;17.20;60.20;;;;;;5013872;28;20004;-91
2023/01/09 10:24:00;;;;;;;;;;;17.10;61.30;;;;;;4999442;28;20295;-89
2023/01/09 10:26:35;;;;;;;;;;;17.00;61.10;;;;;;5012353;28;19971;-91
2023/01/09 10:29:16;;;;;;;;;;;16.80;61.60;;;;;;5011517;28;20335;-89
2023/01/09 10:31:42;;;;;;;;;;;16.60;60.80;;;;;;5013191;28;19917;-91
2023/01/09 10:34:26;;;;;;;;;;;16.30;61.30;;;;;;4997107;28;20432;-90
2023/01/09 10:37:16;;;;;;;;;;;16.30;61.70;;;;;;5013030;28;19921;-90
2023/01/09 10:39:45;;;;;;;;;;;16.20;61.90;;;;;;5007867;28;19933;-90
2023/01/09 10:42:18;;;;;;;;;;;16.00;62.00;;;;;;5014799;28;19913;-91
2023/01/09 10:44:54;;;;;;;;;;;15.80;61.90;;;;;;5006193;28;20430;-91
2023/01/09 10:47:31;;;;;;;;;;;15.80;62.10;;;;;;5008870;28;20300;-89
2023/01/09 10:50:16;;;;;;;;;;;15.70;62.50;;;;;;5008313;28;20001;-90
2023/01/09 10:52:42;;;;;;;;;;;15.90;63.40;;;;;;5013225;28;19960;-91
2023/01/09 10:55:29;;;;;;;;;;;16.00;62.90;;;;;;5015904;28;20396;-91
2023/01/09 10:58:00;;;;;;;;;;;16.20;63.10;;;;;;4996827;28;19924;-89
2023/01/09 11:00:26;;;;;;;;;;;16.10;61.40;;;;;;5012687;28;19979;-89
2023/01/09 11:02:53;;;;;;;;;;;16.10;61.90;;;;;;4990613;28;19983;-88
2023/01/09 11:05:24;;;;;;;;;;;16.00;61.60;;;;;;4990478;28;19917;-89
2023/01/09 11:08:10;;;;;;;;;;;16.00;61.30;;;;;;5008198;28;19922;-89
2023/01/09 11:10:44;;;;;;;;;;;16.00;61.50;;;;;;5012646;28;20279;-90
2023/01/09 11:13:16;;;;;;;;;;;16.00;62.30;;;;;;5009263;28;19929;-90
2023/01/09 11:15:47;;;;;;;;;;;16.10;62.50;;;;;;5006594;28;19967;-90
2023/01/09 11:18:19;;;;;;;;;;;15.90;60.70;;;;;;4992676;28;19982;-89
2023/01/09 11:20:44;;;;;;;;;;;16.00;61.40;;;;;;4990571;28;19913;-91
2023/01/09 11:23:30;;;;;;;;;;;16.00;60.80;;;;;;4993728;28;19963;-90
2023/01/09 11:25:57;;;;;;;;;;;15.90;60.50;;;;;;5010646;28;20032;-90
2023/01/09 11:28:23;;;;;;;;;;;15.90;60.90;;;;;;5009213;28;20344;-89
2023/01/09 11:30:53;;;;;;;;;;;15.80;60.60;;;;;;4992446;28;20380;-90
2023/01/09 11:33:23;;;;;;;;;;;15.90;60.80;;;;;;5008205;28;19922;-89
2023/01/09 11:35:54;;;;;;;;;;;15.70;60.60;;;;;;4987775;28;19929;-90
2023/01/09 11:38:20;;;;;;;;;;;15.70;60.60;;;;;;5009270;28;19921;-89
2023/01/09 11:40:48;;;;;;;;;;;15.70;60.80;;;;;;5005395;28;19914;-90
2023/01/09 11:43:34;;;;;;;;;;;15.50;60.90;;;;;;4993894;28;19921;-90
2023/01/09 11:46:01;;;;;;;;;;;15.50;61.10;;;;;;5008442;28;19913;-91
2023/01/09 11:48:30;;;;;;;;;;;15.40;61.50;;;;;;5008604;28;19925;-90
2023/01/09 11:50:59;;;;;;;;;;;15.40;61.30;;;;;;5003468;28;20016;-89
2023/01/09 11:53:27;;;;;;;;;;;15.30;60.60;;;;;;4988629;28;20020;-91
2023/01/09 11:58:52;;;;;;;;;;;15.20;60.80;;;;;;5006321;28;19991;-89
2023/01/09 12:01:29;;;;;;;;;;;15.00;60.50;;;;;;5011865;28;19914;-89
2023/01/09 12:04:14;;;;;;;;;;;14.90;60.60;;;;;;5000136;28;20435;-90
2023/01/09 12:06:43;;;;;;;;;;;14.80;60.60;;;;;;5012984;28;19917;-90
2023/01/09 12:09:15;;;;;;;;;;;14.80;61.40;;;;;;4995862;28;19921;-90
2023/01/09 12:11:55;;;;;;;;;;;14.70;60.60;;;;;;4998469;28;19924;-90
2023/01/09 12:14:29;;;;;;;;;;;14.70;61.30;;;;;;5011654;28;19921;-89
2023/01/09 12:17:16;;;;;;;;;;;14.80;61.30;;;;;;4998099;28;19914;-90
2023/01/09 12:19:56;;;;;;;;;;;14.80;61.80;;;;;;5010322;28;19934;-89
2023/01/09 12:22:40;;;;;;;;;;;14.80;62.10;;;;;;5011485;28;20408;-89
2023/01/09 12:25:18;;;;;;;;;;;14.90;61.90;;;;;;5010701;28;19913;-90
2023/01/09 12:27:44;;;;;;;;;;;14.90;61.30;;;;;;5012955;28;20005;-90
2023/01/09 12:30:15;;;;;;;;;;;14.90;61.30;;;;;;5012489;28;19996;-90
2023/01/09 12:32:46;;;;;;;;;;;14.80;61.20;;;;;;5012839;28;20331;-90
2023/01/09 12:35:20;;;;;;;;;;;14.70;61.00;;;;;;4997587;28;19925;-89
2023/01/09 12:37:52;;;;;;;;;;;14.60;61.60;;;;;;4997140;28;19972;-91
2023/01/09 12:40:34;;;;;;;;;;;14.50;62.00;;;;;;5028366;28;19926;-90
2023/01/09 12:43:12;;;;;;;;;;;14.40;62.40;;;;;;5012684;28;20143;-89
2023/01/09 12:45:46;;;;;;;;;;;14.40;62.70;;;;;;5013566;28;19987;-89
2023/01/09 12:48:17;;;;;;;;;;;14.30;63.00;;;;;;5013200;28;19913;-88
2023/01/09 12:50:55;;;;;;;;;;;14.30;63.40;;;;;;5010989;28;19920;-89
2023/01/09 12:53:26;;;;;;;;;;;14.30;63.50;;;;;;4998265;28;19933;-87
2023/01/09 12:56:02;;;;;;;;;;;14.20;63.50;;;;;;5027756;28;19918;-88
2023/01/09 12:58:35;;;;;;;;;;;14.30;63.70;;;;;;5012668;28;19929;-88
2023/01/09 13:01:03;;;;;;;;;;;14.40;64.00;;;;;;5013538;28;20435;-87
2023/01/09 13:03:38;;;;;;;;;;;14.50;63.80;;;;;;4995579;28;19928;-89
2023/01/09 13:06:10;;;;;;;;;;;14.50;63.40;;;;;;4979125;28;19993;-90
2023/01/09 13:08:40;;;;;;;;;;;14.50;63.40;;;;;;4998111;28;19913;-89
2023/01/09 13:11:14;;;;;;;;;;;14.50;63.80;;;;;;5013304;28;19944;-90
2023/01/09 13:13:46;;;;;;;;;;;14.70;63.80;;;;;;4993396;28;19925;-90
2023/01/09 13:16:17;;;;;;;;;;;14.80;63.90;;;;;;5013704;28;20011;-90
2023/01/09 13:18:46;;;;;;;;;;;14.90;63.50;;;;;;4994801;28;19928;-89
2023/01/09 13:21:14;;;;;;;;;;;15.00;63.50;;;;;;5013507;28;19925;-90
2023/01/09 13:23:55;;;;;;;;;;;15.10;63.40;;;;;;4989127;28;20003;-90
2023/01/09 13:26:21;;;;;;;;;;;15.20;63.10;;;;;;5005154;28;20284;-89
2023/01/09 13:28:51;;;;;;;;;;;15.20;62.80;;;;;;5007905;28;19918;-90
2023/01/09 13:31:32;;;;;;;;;;;15.20;62.50;;;;;;5013226;28;19921;-91
2023/01/09 13:33:59;;;;;;;;;;;15.20;62.70;;;;;;4985947;28;19927;-92
2023/01/09 13:36:26;;;;;;;;;;;15.20;62.90;;;;;;5007876;28;19917;-92
2023/01/09 13:38:53;;;;;;;;;;;15.20;62.90;;;;;;5013267;28;19930;-90
2023/01/09 13:44:19;;;;;;;;;;;15.30;63.30;;;;;;5016656;28;19943;-90
2023/01/09 13:46:53;;;;;;;;;;;15.30;62.90;;;;;;5005761;28;20300;-90
2023/01/09 13:49:49;;;;;;;;;;;15.20;62.60;;;;;;4997669;28;19928;-90
2023/01/09 13:52:35;;;;;;;;;;;15.20;62.50;;;;;;5000512;28;19921;-88
2023/01/09 13:55:22;;;;;;;;;;;15.20;62.80;;;;;;5017746;28;19924;-90
2023/01/09 13:58:12;;;;;;;;;;;15.10;62.70;;;;;;5014601;28;20371;-91
2023/01/09 14:00:38;;;;;;;;;;;14.90;62.10;;;;;;5008768;28;19992;-89
2023/01/09 14:03:07;;;;;;;;;;;14.80;62.20;;;;;;5012794;28;19922;-89
2023/01/09 14:05:33;;;;;;;;;;;14.80;62.50;;;;;;5010065;28;19925;-90
2023/01/09 14:08:20;;;;;;;;;;;14.70;62.30;;;;;;5013390;28;19923;-91
2023/01/09 14:10:51;;;;;;;;;;;14.70;62.30;;;;;;5021834;28;19968;-91
2023/01/09 14:13:19;;;;;;;;;;;14.70;62.50;;;;;;5011988;28;19917;-90
2023/01/09 14:15:46;;;;;;;;;;;14.60;62.10;;;;;;4994147;28;20295;-88
2023/01/09 14:18:31;;;;;;;;;;;14.50;62.10;;;;;;5002325;28;19971;-90
2023/01/09 14:21:00;;;;;;;;;;;14.40;62.00;;;;;;5029926;28;20161;-90
2023/01/09 14:23:34;;;;;;;;;;;14.30;62.30;;;;;;5014485;28;19917;-91
2023/01/09 14:26:03;;;;;;;;;;;14.30;62.10;;;;;;5019551;28;20398;-89
2023/01/09 14:28:32;;;;;;;;;;;14.30;62.30;;;;;;4994928;28;19921;-90
2023/01/09 14:30:58;;;;;;;;;;;14.30;62.30;;;;;;4994698;28;19928;-88
2023/01/09 14:33:28;;;;;;;;;;;14.30;62.80;;;;;;5012875;28;20295;-90
2023/01/09 14:36:03;;;;;;;;;;;14.40;62.80;;;;;;4995688;28;20013;-88
2023/01/09 14:38:44;;;;;;;;;;;14.40;62.70;;;;;;5011446;28;19964;-90
2023/01/09 14:41:14;;;;;;;;;;;14.40;62.80;;;;;;5011620;28;19917;-90
2023/01/09 14:43:44;;;;;;;;;;;14.50;63.20;;;;;;4994969;28;20020;-90
2023/01/09 14:46:12;;;;;;;;;;;14.50;63.10;;;;;;5009032;28;19921;-90
2023/01/09 14:48:43;;;;;;;;;;;14.50;62.90;;;;;;4993531;28;19922;-90
2023/01/09 14:54:30;;;;;;;;;;;14.40;62.70;;;;;;4904004;28;20116;-91
2023/01/09 14:57:13;;;;;;;;;;;;;;;;;;;;;
2023/01/09 15:02:47;;;;;;;;;;;14.40;62.90;;;;;;4869658;29;20239;-90
2023/01/09 15:05:16;;;;;;;;;;;14.40;62.70;;;;;;4946857;28;20072;-90
2023/01/09 15:08:05;;;;;;;;;;;14.40;62.40;;;;;;4972454;28;20102;-91
2023/01/09 15:10:44;;;;;;;;;;;14.40;62.30;;;;;;4969742;28;19999;-91
2023/01/09 15:13:40;;;;;;;;;;;14.40;62.00;;;;;;4964324;28;20070;-91
2023/01/09 15:16:16;;;;;;;;;;;14.40;62.20;;;;;;4983922;28;20099;-91
2023/01/09 15:19:03;;;;;;;;;;;14.40;61.80;;;;;;4972196;28;20076;-91
2023/01/09 15:21:32;;;;;;;;;;;14.30;62.00;;;;;;4972574;28;19913;-88
2023/01/09 15:24:17;;;;;;;;;;;14.30;62.20;;;;;;4973565;28;20170;-90
2023/01/09 15:27:04;;;;;;;;;;;14.30;62.30;;;;;;4988018;28;20103;-90
2023/01/09 15:29:33;;;;;;;;;;;14.30;62.20;;;;;;4989882;28;20040;-90
2023/01/09 15:32:18;;;;;;;;;;;14.20;62.20;;;;;;4976730;28;20243;-91
2023/01/09 15:34:45;;;;;;;;;;;14.20;62.20;;;;;;4970436;28;19998;-90
2023/01/09 15:37:33;;;;;;;;;;;14.20;62.00;;;;;;4954722;28;20093;-90
2023/01/09 15:40:04;;;;;;;;;;;14.10;62.10;;;;;;4976578;28;20063;-93
2023/01/09 15:45:25;;;;;;;;;;;14.00;62.30;;;;;;4978753;28;20116;-90
2023/01/09 15:50:45;;;;;;;;;;;14.00;62.00;;;;;;4971535;28;20162;-89
2023/01/09 15:56:32;;;;;;;;;;;13.80;62.10;;;;;;4996557;28;19999;-91
2023/01/09 15:58:59;;;;;;;;;;;13.70;62.00;;;;;;4992731;28;20076;-90
2023/01/09 16:01:32;;;;;;;;;;;13.70;61.60;;;;;;4980184;28;19979;-91
2023/01/09 16:04:15;;;;;;;;;;;13.60;61.60;;;;;;4976556;28;20136;-91
2023/01/09 16:06:48;;;;;;;;;;;13.50;61.60;;;;;;4979749;28;19967;-90
2023/01/09 16:09:23;;;;;;;;;;;13.50;61.70;;;;;;4952431;28;20112;-90
2023/01/09 16:11:58;;;;;;;;;;;13.50;61.90;;;;;;4936121;28;20086;-91
2023/01/09 16:18:43;;;;;;;;;;;13.50;62.20;;;;;;4915149;28;20131;-91
2023/01/09 16:21:33;;;;;;;;;;;13.50;62.50;;;;;;4896306;28;20101;-90
2023/01/09 16:24:05;;;;;;;;;;;13.50;62.80;;;;;;4894505;28;20207;-91
2023/01/09 16:26:33;;;;;;;;;;;13.60;62.70;;;;;;4891836;29;20150;-91
2023/01/09 16:29:20;;;;;;;;;;;13.70;62.50;;;;;;4888354;29;20096;-91
2023/01/09 16:32:05;;;;;;;;;;;;;;;;;;;;;
2023/01/09 16:35:04;;;;;;;;;;;13.70;62.40;;;;;;4887236;29;20187;-91
2023/01/09 16:37:37;;;;;;;;;;;;;;;;;;;;;
2023/01/09 16:40:34;;;;;;;;;;;13.70;62.40;;;;;;4936727;28;20037;-90
2023/01/09 16:43:17;;;;;;;;;;;13.70;62.40;;;;;;4958276;28;20082;-90
2023/01/09 16:46:08;;;;;;;;;;;13.70;62.60;;;;;;4952225;28;20124;-91
2023/01/09 16:51:38;;;;;;;;;;;;;;;;;;;;;
2023/01/09 16:56:37;;;;;;;;;;;13.80;62.40;;;;;;4994549;28;19917;-92
2023/01/09 16:59:42;;;;;;;;;;;13.70;62.30;;;;;;4994567;28;20178;-89
2023/01/09 17:02:23;;;;;;;;;;;13.70;62.10;;;;;;4955873;28;20113;-89
2023/01/09 17:08:04;;;;;;;;;;;13.50;62.20;;;;;;4946547;28;20076;-90
2023/01/09 17:13:49;;;;;;;;;;;;;;;;;;;;;
2023/01/09 17:16:30;;;;;;;;;;;13.30;62.90;;;;;;4971348;28;20319;-91
2023/01/09 17:19:24;;;;;;;;;;;13.20;63.00;;;;;;4953074;28;20172;-91
2023/01/09 17:22:13;;;;;;;;;;;13.30;62.80;;;;;;4965163;28;20209;-91
2023/01/09 17:33:11;;;;;;;;;;;13.10;63.10;;;;;;4988116;28;19986;-90
2023/01/09 17:35:38;;;;;;;;;;;13.10;63.10;;;;;;4968655;28;20112;-90
2023/01/09 17:38:04;;;;;;;;;;;13.10;63.10;;;;;;4971261;28;19982;-91
2023/01/09 17:44:03;;;;;;;;;;;;;;;;;;;;;
2023/01/09 17:46:43;;;;;;;;;;;13.10;63.00;;;;;;4959847;28;20163;-89
2023/01/09 17:49:15;;;;;;;;;;;13.00;62.90;;;;;;4993959;28;20637;-90
2023/01/09 17:52:05;;;;;;;;;;;13.00;62.90;;;;;;4989306;28;20101;-91
2023/01/09 17:57:38;;;;;;;;;;;13.00;63.00;;;;;;4962597;28;20519;-92
2023/01/09 18:03:19;;;;;;;;;;;13.10;63.00;;;;;;4949322;28;20086;-91
2023/01/09 18:18:02;;;;;;;;;;;13.10;63.00;;;;;;4951243;28;20066;-91
2023/01/09 18:20:29;;;;;;;;;;;13.10;63.00;;;;;;4936952;28;20054;-90
2023/01/09 18:23:09;;;;;;;;;;;13.10;63.00;;;;;;4963268;28;20075;-89
2023/01/09 18:25:39;;;;;;;;;;;13.10;62.80;;;;;;4969150;28;20104;-92
2023/01/09 18:28:11;;;;;;;;;;;13.20;62.80;;;;;;4959197;28;20090;-91
2023/01/09 18:30:37;;;;;;;;;;;13.10;62.90;;;;;;4966091;28;20050;-90
2023/01/09 18:36:18;;;;;;;;;;;13.20;62.90;;;;;;4958366;28;20073;-91
2023/01/09 18:39:01;;;;;;;;;;;;;;;;;;;;;
2023/01/09 18:41:37;;;;;;;;;;;13.20;62.80;;;;;;4964726;28;20127;-92
2023/01/09 18:44:23;;;;;;;;;;;;;;;;;;;;;
2023/01/09 18:47:14;;;;;;;;;;;13.20;62.90;;;;;;4999216;28;20023;-93
2023/01/09 18:52:40;;;;;;;;;;;13.20;62.90;;;;;;4917435;28;20209;-90
2023/01/09 18:55:15;;;;;;;;;;;13.20;62.90;;;;;;4925156;28;20028;-91
2023/01/09 18:58:11;;;;;;;;;;;13.20;62.90;;;;;;4972916;28;20099;-92
2023/01/09 19:00:58;;;;;;;;;;;13.20;62.70;;;;;;4926408;28;20138;-91
2023/01/09 19:03:24;;;;;;;;;;;13.20;62.80;;;;;;4985251;28;20094;-92
2023/01/09 19:06:12;;;;;;;;;;;13.20;62.90;;;;;;4975056;28;19909;-92
2023/01/09 19:08:57;;;;;;;;;;;;;;;;;;;;;
2023/01/09 19:11:35;;;;;;;;;;;13.20;62.80;;;;;;4913542;28;20203;-91
2023/01/09 19:14:02;;;;;;;;;;;13.10;62.70;;;;;;4903468;28;20027;-89
2023/01/09 19:17:00;;;;;;;;;;;13.10;62.70;;;;;;4901570;28;20033;-89
2023/01/09 19:19:26;;;;;;;;;;;13.10;62.80;;;;;;4914803;28;20178;-91
2023/01/09 19:22:11;;;;;;;;;;;13.10;62.80;;;;;;4921432;28;20055;-92
2023/01/09 19:24:43;;;;;;;;;;;13.10;62.90;;;;;;4917454;28;20110;-91
2023/01/09 19:27:35;;;;;;;;;;;13.20;63.00;;;;;;4976267;28;20049;-90
2023/01/09 19:30:10;;;;;;;;;;;13.20;63.00;;;;;;4989046;28;20099;-91
2023/01/09 19:32:59;;;;;;;;;;;13.20;62.70;;;;;;4979129;28;20110;-90
2023/01/09 19:35:32;;;;;;;;;;;13.20;62.50;;;;;;4988703;28;20037;-92
2023/01/09 19:38:07;;;;;;;;;;;13.00;62.00;;;;;;4978046;28;20065;-90